sensor_id;sensor_type;location;lat;lon;timestamp;temperature;humidity
53776;DHT22;44276;49.534;6.378;2022-10-23T00:01:46;10.80;99.90
53776;DHT22;44276;49.534;6.378;2022-10-23T00:04:17;10.80;99.90
53776;DHT22;44276;49.534;6.378;2022-10-23T00:06:48;10.80;99.90
53776;DHT22;44276;49.534;6.378;2022-10-23T00:09:22;10.80;99.90
53776;DHT22;44276;49.534;6.378;2022-10-23T00:11:52;10.90;99.90
53776;DHT22;44276;49.534;6.378;2022-10-23T00:14:22;10.90;99.90
53776;DHT22;44276;49.534;6.378;2022-10-23T00:16:51;10.80;99.90
53776;DHT22;44276;49.534;6.378;2022-10-23T00:19:19;10.80;99.90
53776;DHT22;44276;49.534;6.378;2022-10-23T00:21:47;10.80;99.90
53776;DHT22;44276;49.534;6.378;2022-10-23T00:24:15;10.80;99.90
53776;DHT22;44276;49.534;6.378;2022-10-23T00:26:45;10.70;99.90
53776;DHT22;44276;49.534;6.378;2022-10-23T00:29:16;10.70;99.90
53776;DHT22;44276;49.534;6.378;2022-10-23T00:31:44;10.80;99.90
53776;DHT22;44276;49.534;6.378;2022-10-23T00:34:12;10.80;99.90
53776;DHT22;44276;49.534;6.378;2022-10-23T00:36:40;10.80;99.90
53776;DHT22;44276;49.534;6.378;2022-10-23T00:39:08;10.80;99.90
53776;DHT22;44276;49.534;6.378;2022-10-23T00:41:36;10.60;99.90
53776;DHT22;44276;49.534;6.378;2022-10-23T00:44:09;10.60;99.90
53776;DHT22;44276;49.534;6.378;2022-10-23T00:46:58;10.60;99.90
53776;DHT22;44276;49.534;6.378;2022-10-23T00:49:27;10.60;99.90
53776;DHT22;44276;49.534;6.378;2022-10-23T00:51:59;10.60;99.90
53776;DHT22;44276;49.534;6.378;2022-10-23T00:54:33;10.70;99.90
53776;DHT22;44276;49.534;6.378;2022-10-23T00:57:06;10.70;99.90
53776;DHT22;44276;49.534;6.378;2022-10-23T00:59:39;10.80;99.90
53776;DHT22;44276;49.534;6.378;2022-10-23T01:02:08;10.80;99.90
53776;DHT22;44276;49.534;6.378;2022-10-23T01:04:37;10.80;99.90
53776;DHT22;44276;49.534;6.378;2022-10-23T01:07:11;10.80;99.90
53776;DHT22;44276;49.534;6.378;2022-10-23T01:09:48;10.90;99.90
53776;DHT22;44276;49.534;6.378;2022-10-23T01:12:27;10.90;99.90
53776;DHT22;44276;49.534;6.378;2022-10-23T01:15:11;10.90;99.90
53776;DHT22;44276;49.534;6.378;2022-10-23T01:17:47;10.90;99.90
53776;DHT22;44276;49.534;6.378;2022-10-23T01:20:30;10.90;99.90
53776;DHT22;44276;49.534;6.378;2022-10-23T01:23:13;10.90;99.90
53776;DHT22;44276;49.534;6.378;2022-10-23T01:26:00;10.80;99.90
53776;DHT22;44276;49.534;6.378;2022-10-23T01:28:46;10.70;99.90
53776;DHT22;44276;49.534;6.378;2022-10-23T01:31:20;10.70;99.90
53776;DHT22;44276;49.534;6.378;2022-10-23T01:33:56;10.70;99.90
53776;DHT22;44276;49.534;6.378;2022-10-23T01:36:31;10.70;99.90
53776;DHT22;44276;49.534;6.378;2022-10-23T01:39:05;10.70;99.90
53776;DHT22;44276;49.534;6.378;2022-10-23T01:41:38;10.70;99.90
53776;DHT22;44276;49.534;6.378;2022-10-23T01:44:14;10.70;99.90
53776;DHT22;44276;49.534;6.378;2022-10-23T01:46:48;10.60;99.90
53776;DHT22;44276;49.534;6.378;2022-10-23T01:49:19;10.60;99.90
53776;DHT22;44276;49.534;6.378;2022-10-23T01:51:53;10.60;99.90
53776;DHT22;44276;49.534;6.378;2022-10-23T01:54:25;10.70;99.90
53776;DHT22;44276;49.534;6.378;2022-10-23T01:56:58;10.60;99.90
53776;DHT22;44276;49.534;6.378;2022-10-23T01:59:30;10.60;99.90
53776;DHT22;44276;49.534;6.378;2022-10-23T02:02:03;10.60;99.90
53776;DHT22;44276;49.534;6.378;2022-10-23T02:04:37;10.60;99.90
53776;DHT22;44276;49.534;6.378;2022-10-23T02:07:08;10.60;99.90
53776;DHT22;44276;49.534;6.378;2022-10-23T02:09:37;10.70;99.90
53776;DHT22;44276;49.534;6.378;2022-10-23T02:12:08;10.80;99.90
53776;DHT22;44276;49.534;6.378;2022-10-23T02:14:45;10.80;99.90
53776;DHT22;44276;49.534;6.378;2022-10-23T02:17:27;10.70;99.90
53776;DHT22;44276;49.534;6.378;2022-10-23T02:20:16;10.80;99.90
53776;DHT22;44276;49.534;6.378;2022-10-23T02:22:56;10.90;99.90
53776;DHT22;44276;49.534;6.378;2022-10-23T02:25:32;11.00;99.90
53776;DHT22;44276;49.534;6.378;2022-10-23T02:28:09;11.00;99.90
53776;DHT22;44276;49.534;6.378;2022-10-23T02:30:48;11.00;99.90
53776;DHT22;44276;49.534;6.378;2022-10-23T02:33:17;11.00;99.90
53776;DHT22;44276;49.534;6.378;2022-10-23T02:35:47;11.00;99.90
53776;DHT22;44276;49.534;6.378;2022-10-23T02:38:31;11.00;99.90
53776;DHT22;44276;49.534;6.378;2022-10-23T02:41:12;10.90;99.90
53776;DHT22;44276;49.534;6.378;2022-10-23T02:43:56;11.00;99.90
53776;DHT22;44276;49.534;6.378;2022-10-23T02:46:44;10.80;99.90
53776;DHT22;44276;49.534;6.378;2022-10-23T02:49:20;10.80;99.90
53776;DHT22;44276;49.534;6.378;2022-10-23T02:52:02;10.70;99.90
53776;DHT22;44276;49.534;6.378;2022-10-23T02:54:53;10.60;99.90
53776;DHT22;44276;49.534;6.378;2022-10-23T02:57:33;10.70;99.90
53776;DHT22;44276;49.534;6.378;2022-10-23T03:00:09;10.60;99.90
53776;DHT22;44276;49.534;6.378;2022-10-23T03:02:45;10.70;99.90
53776;DHT22;44276;49.534;6.378;2022-10-23T03:05:23;10.60;99.90
53776;DHT22;44276;49.534;6.378;2022-10-23T03:07:56;10.50;99.90
53776;DHT22;44276;49.534;6.378;2022-10-23T03:10:24;10.50;99.90
53776;DHT22;44276;49.534;6.378;2022-10-23T03:12:52;10.40;99.90
53776;DHT22;44276;49.534;6.378;2022-10-23T03:15:20;10.40;99.90
53776;DHT22;44276;49.534;6.378;2022-10-23T03:17:50;10.30;99.90
53776;DHT22;44276;49.534;6.378;2022-10-23T03:20:18;10.30;99.90
53776;DHT22;44276;49.534;6.378;2022-10-23T03:22:46;10.30;99.90
53776;DHT22;44276;49.534;6.378;2022-10-23T03:25:15;10.40;99.90
53776;DHT22;44276;49.534;6.378;2022-10-23T03:27:43;10.40;99.90
53776;DHT22;44276;49.534;6.378;2022-10-23T03:30:11;10.40;99.90
53776;DHT22;44276;49.534;6.378;2022-10-23T03:32:40;10.50;99.90
53776;DHT22;44276;49.534;6.378;2022-10-23T03:35:10;10.50;99.90
53776;DHT22;44276;49.534;6.378;2022-10-23T03:37:38;10.60;99.90
53776;DHT22;44276;49.534;6.378;2022-10-23T03:40:07;10.60;99.90
53776;DHT22;44276;49.534;6.378;2022-10-23T03:42:37;10.60;99.90
53776;DHT22;44276;49.534;6.378;2022-10-23T03:45:06;10.60;99.90
53776;DHT22;44276;49.534;6.378;2022-10-23T03:47:34;10.60;99.90
53776;DHT22;44276;49.534;6.378;2022-10-23T03:50:08;10.60;99.90
53776;DHT22;44276;49.534;6.378;2022-10-23T03:52:39;10.50;99.90
53776;DHT22;44276;49.534;6.378;2022-10-23T03:55:08;10.40;99.90
53776;DHT22;44276;49.534;6.378;2022-10-23T03:57:36;10.40;99.90
53776;DHT22;44276;49.534;6.378;2022-10-23T04:00:06;10.40;99.90
53776;DHT22;44276;49.534;6.378;2022-10-23T04:02:34;10.30;99.90
53776;DHT22;44276;49.534;6.378;2022-10-23T04:05:03;10.30;99.90
53776;DHT22;44276;49.534;6.378;2022-10-23T04:07:33;10.30;99.90
53776;DHT22;44276;49.534;6.378;2022-10-23T04:10:01;10.30;99.90
53776;DHT22;44276;49.534;6.378;2022-10-23T04:12:30;10.40;99.90
53776;DHT22;44276;49.534;6.378;2022-10-23T04:14:58;10.40;99.90
53776;DHT22;44276;49.534;6.378;2022-10-23T04:17:26;10.40;99.90
53776;DHT22;44276;49.534;6.378;2022-10-23T04:19:55;10.30;99.90
53776;DHT22;44276;49.534;6.378;2022-10-23T04:22:23;10.30;99.90
53776;DHT22;44276;49.534;6.378;2022-10-23T04:24:55;10.40;99.90
53776;DHT22;44276;49.534;6.378;2022-10-23T04:27:23;10.30;99.90
53776;DHT22;44276;49.534;6.378;2022-10-23T04:29:51;10.30;99.90
53776;DHT22;44276;49.534;6.378;2022-10-23T04:32:24;10.30;99.90
53776;DHT22;44276;49.534;6.378;2022-10-23T04:34:53;10.30;99.90
53776;DHT22;44276;49.534;6.378;2022-10-23T04:37:21;10.20;99.90
53776;DHT22;44276;49.534;6.378;2022-10-23T04:39:49;10.20;99.90
53776;DHT22;44276;49.534;6.378;2022-10-23T04:42:18;10.10;99.90
53776;DHT22;44276;49.534;6.378;2022-10-23T04:44:47;10.00;99.90
53776;DHT22;44276;49.534;6.378;2022-10-23T04:47:15;10.20;99.90
53776;DHT22;44276;49.534;6.378;2022-10-23T04:49:43;10.00;99.90
53776;DHT22;44276;49.534;6.378;2022-10-23T04:52:11;9.90;99.90
53776;DHT22;44276;49.534;6.378;2022-10-23T04:54:39;9.80;99.90
53776;DHT22;44276;49.534;6.378;2022-10-23T04:57:07;9.60;99.90
53776;DHT22;44276;49.534;6.378;2022-10-23T04:59:37;9.60;99.90
53776;DHT22;44276;49.534;6.378;2022-10-23T05:02:05;9.60;99.90
53776;DHT22;44276;49.534;6.378;2022-10-23T05:04:33;9.60;99.90
53776;DHT22;44276;49.534;6.378;2022-10-23T05:07:01;9.60;99.90
53776;DHT22;44276;49.534;6.378;2022-10-23T05:09:29;9.60;99.90
53776;DHT22;44276;49.534;6.378;2022-10-23T05:11:57;9.60;99.90
53776;DHT22;44276;49.534;6.378;2022-10-23T05:14:25;9.60;99.90
53776;DHT22;44276;49.534;6.378;2022-10-23T05:16:59;9.60;99.90
53776;DHT22;44276;49.534;6.378;2022-10-23T05:19:45;9.60;99.90
53776;DHT22;44276;49.534;6.378;2022-10-23T05:22:18;9.50;99.90
53776;DHT22;44276;49.534;6.378;2022-10-23T05:24:49;9.50;99.90
53776;DHT22;44276;49.534;6.378;2022-10-23T05:27:17;9.60;99.90
53776;DHT22;44276;49.534;6.378;2022-10-23T05:29:45;9.60;99.90
53776;DHT22;44276;49.534;6.378;2022-10-23T05:32:16;9.60;99.90
53776;DHT22;44276;49.534;6.378;2022-10-23T05:34:44;9.70;99.90
53776;DHT22;44276;49.534;6.378;2022-10-23T05:37:15;9.70;99.90
53776;DHT22;44276;49.534;6.378;2022-10-23T05:39:43;9.80;99.90
53776;DHT22;44276;49.534;6.378;2022-10-23T05:42:12;9.80;99.90
53776;DHT22;44276;49.534;6.378;2022-10-23T05:44:40;9.90;99.90
53776;DHT22;44276;49.534;6.378;2022-10-23T05:47:08;9.80;99.90
53776;DHT22;44276;49.534;6.378;2022-10-23T05:49:37;9.70;99.90
53776;DHT22;44276;49.534;6.378;2022-10-23T05:52:06;9.70;99.90
53776;DHT22;44276;49.534;6.378;2022-10-23T05:54:37;9.70;99.90
53776;DHT22;44276;49.534;6.378;2022-10-23T05:57:05;9.70;99.90
53776;DHT22;44276;49.534;6.378;2022-10-23T05:59:33;9.70;99.90
53776;DHT22;44276;49.534;6.378;2022-10-23T06:02:01;9.70;99.90
53776;DHT22;44276;49.534;6.378;2022-10-23T06:04:29;9.70;99.90
53776;DHT22;44276;49.534;6.378;2022-10-23T06:06:59;9.70;99.90
53776;DHT22;44276;49.534;6.378;2022-10-23T06:09:27;9.70;99.90
53776;DHT22;44276;49.534;6.378;2022-10-23T06:11:55;9.70;99.90
53776;DHT22;44276;49.534;6.378;2022-10-23T06:14:24;9.60;99.90
53776;DHT22;44276;49.534;6.378;2022-10-23T06:16:52;9.60;99.90
53776;DHT22;44276;49.534;6.378;2022-10-23T06:19:20;9.60;99.90
53776;DHT22;44276;49.534;6.378;2022-10-23T06:21:48;9.70;99.90
53776;DHT22;44276;49.534;6.378;2022-10-23T06:24:17;9.70;99.90
53776;DHT22;44276;49.534;6.378;2022-10-23T06:26:46;9.90;99.90
53776;DHT22;44276;49.534;6.378;2022-10-23T06:29:14;9.80;99.90
53776;DHT22;44276;49.534;6.378;2022-10-23T06:31:42;9.80;99.90
53776;DHT22;44276;49.534;6.378;2022-10-23T06:34:11;9.90;99.90
53776;DHT22;44276;49.534;6.378;2022-10-23T06:36:39;9.90;99.90
53776;DHT22;44276;49.534;6.378;2022-10-23T06:39:08;9.90;99.90
53776;DHT22;44276;49.534;6.378;2022-10-23T06:41:38;9.90;99.90
53776;DHT22;44276;49.534;6.378;2022-10-23T06:44:07;9.90;99.90
53776;DHT22;44276;49.534;6.378;2022-10-23T06:46:36;10.00;99.90
53776;DHT22;44276;49.534;6.378;2022-10-23T06:49:05;10.00;99.90
53776;DHT22;44276;49.534;6.378;2022-10-23T06:51:33;10.10;99.90
53776;DHT22;44276;49.534;6.378;2022-10-23T06:54:01;10.10;99.90
53776;DHT22;44276;49.534;6.378;2022-10-23T06:56:29;10.20;99.90
53776;DHT22;44276;49.534;6.378;2022-10-23T06:58:59;10.30;99.90
53776;DHT22;44276;49.534;6.378;2022-10-23T07:01:27;10.40;99.90
53776;DHT22;44276;49.534;6.378;2022-10-23T07:03:56;10.50;99.90
53776;DHT22;44276;49.534;6.378;2022-10-23T07:06:24;10.50;99.90
53776;DHT22;44276;49.534;6.378;2022-10-23T07:08:52;10.60;99.90
53776;DHT22;44276;49.534;6.378;2022-10-23T07:11:20;10.70;99.90
53776;DHT22;44276;49.534;6.378;2022-10-23T07:13:49;10.80;99.90
53776;DHT22;44276;49.534;6.378;2022-10-23T07:16:22;10.90;99.90
53776;DHT22;44276;49.534;6.378;2022-10-23T07:18:54;10.90;99.90
53776;DHT22;44276;49.534;6.378;2022-10-23T07:21:25;11.00;99.90
53776;DHT22;44276;49.534;6.378;2022-10-23T07:23:54;11.00;99.90
53776;DHT22;44276;49.534;6.378;2022-10-23T07:26:22;11.00;99.90
53776;DHT22;44276;49.534;6.378;2022-10-23T07:28:50;11.10;99.90
53776;DHT22;44276;49.534;6.378;2022-10-23T07:31:22;11.10;99.90
53776;DHT22;44276;49.534;6.378;2022-10-23T07:33:54;11.10;99.90
53776;DHT22;44276;49.534;6.378;2022-10-23T07:36:22;11.20;99.90
53776;DHT22;44276;49.534;6.378;2022-10-23T07:38:50;11.30;99.90
53776;DHT22;44276;49.534;6.378;2022-10-23T07:41:18;11.30;99.90
53776;DHT22;44276;49.534;6.378;2022-10-23T07:43:47;11.30;99.90
53776;DHT22;44276;49.534;6.378;2022-10-23T07:46:15;11.40;99.90
53776;DHT22;44276;49.534;6.378;2022-10-23T07:48:44;11.50;99.90
53776;DHT22;44276;49.534;6.378;2022-10-23T07:51:14;11.60;99.90
53776;DHT22;44276;49.534;6.378;2022-10-23T07:53:43;11.60;99.90
53776;DHT22;44276;49.534;6.378;2022-10-23T07:56:13;11.70;99.90
53776;DHT22;44276;49.534;6.378;2022-10-23T07:58:43;11.70;99.90
53776;DHT22;44276;49.534;6.378;2022-10-23T08:01:16;11.90;99.90
53776;DHT22;44276;49.534;6.378;2022-10-23T08:03:47;11.90;99.90
53776;DHT22;44276;49.534;6.378;2022-10-23T08:06:15;11.90;99.90
53776;DHT22;44276;49.534;6.378;2022-10-23T08:08:43;12.00;99.90
53776;DHT22;44276;49.534;6.378;2022-10-23T08:11:13;12.00;99.90
53776;DHT22;44276;49.534;6.378;2022-10-23T08:13:42;12.10;99.90
53776;DHT22;44276;49.534;6.378;2022-10-23T08:16:10;12.20;99.90
53776;DHT22;44276;49.534;6.378;2022-10-23T08:18:38;12.30;99.90
53776;DHT22;44276;49.534;6.378;2022-10-23T08:21:10;12.50;99.90
53776;DHT22;44276;49.534;6.378;2022-10-23T08:23:38;12.80;99.90
53776;DHT22;44276;49.534;6.378;2022-10-23T08:26:07;12.90;99.90
53776;DHT22;44276;49.534;6.378;2022-10-23T08:28:36;13.20;99.90
53776;DHT22;44276;49.534;6.378;2022-10-23T08:31:07;13.40;99.90
53776;DHT22;44276;49.534;6.378;2022-10-23T08:33:36;14.20;99.90
53776;DHT22;44276;49.534;6.378;2022-10-23T08:36:20;14.30;99.90
53776;DHT22;44276;49.534;6.378;2022-10-23T08:38:50;14.30;99.90
53776;DHT22;44276;49.534;6.378;2022-10-23T08:41:24;14.30;99.90
53776;DHT22;44276;49.534;6.378;2022-10-23T08:44:01;14.30;99.90
53776;DHT22;44276;49.534;6.378;2022-10-23T08:46:39;14.00;99.90
53776;DHT22;44276;49.534;6.378;2022-10-23T08:49:19;14.10;99.90
53776;DHT22;44276;49.534;6.378;2022-10-23T08:51:59;14.20;99.90
53776;DHT22;44276;49.534;6.378;2022-10-23T08:54:44;14.70;99.90
53776;DHT22;44276;49.534;6.378;2022-10-23T08:57:25;15.10;99.90
53776;DHT22;44276;49.534;6.378;2022-10-23T09:00:03;15.00;99.90
53776;DHT22;44276;49.534;6.378;2022-10-23T09:02:37;14.70;99.90
53776;DHT22;44276;49.534;6.378;2022-10-23T09:05:13;14.90;99.90
53776;DHT22;44276;49.534;6.378;2022-10-23T09:07:57;15.20;99.90
53776;DHT22;44276;49.534;6.378;2022-10-23T09:10:57;15.40;99.90
53776;DHT22;44276;49.534;6.378;2022-10-23T09:13:44;15.80;99.90
53776;DHT22;44276;49.534;6.378;2022-10-23T09:16:31;16.20;99.90
53776;DHT22;44276;49.534;6.378;2022-10-23T09:19:13;16.30;99.90
53776;DHT22;44276;49.534;6.378;2022-10-23T09:21:44;16.30;99.90
53776;DHT22;44276;49.534;6.378;2022-10-23T09:24:20;16.50;99.90
53776;DHT22;44276;49.534;6.378;2022-10-23T09:26:52;17.00;99.90
53776;DHT22;44276;49.534;6.378;2022-10-23T09:29:23;17.60;99.90
53776;DHT22;44276;49.534;6.378;2022-10-23T09:31:54;18.10;99.90
53776;DHT22;44276;49.534;6.378;2022-10-23T09:34:25;19.00;99.90
53776;DHT22;44276;49.534;6.378;2022-10-23T09:36:56;20.30;79.50
53776;DHT22;44276;49.534;6.378;2022-10-23T09:39:30;21.40;64.50
53776;DHT22;44276;49.534;6.378;2022-10-23T09:42:19;21.90;60.60
53776;DHT22;44276;49.534;6.378;2022-10-23T09:44:51;22.50;51.70
53776;DHT22;44276;49.534;6.378;2022-10-23T09:47:22;22.70;45.60
53776;DHT22;44276;49.534;6.378;2022-10-23T09:49:53;22.60;48.10
53776;DHT22;44276;49.534;6.378;2022-10-23T09:52:27;22.10;48.60
53776;DHT22;44276;49.534;6.378;2022-10-23T09:55:17;21.40;44.50
53776;DHT22;44276;49.534;6.378;2022-10-23T09:57:47;20.70;45.40
53776;DHT22;44276;49.534;6.378;2022-10-23T10:00:18;20.30;49.80
53776;DHT22;44276;49.534;6.378;2022-10-23T10:02:56;20.00;50.10
53776;DHT22;44276;49.534;6.378;2022-10-23T10:05:28;19.90;52.60
53776;DHT22;44276;49.534;6.378;2022-10-23T10:08:02;20.10;51.10
53776;DHT22;44276;49.534;6.378;2022-10-23T10:10:38;20.30;49.20
53776;DHT22;44276;49.534;6.378;2022-10-23T10:13:28;21.50;43.40
53776;DHT22;44276;49.534;6.378;2022-10-23T10:16:12;22.40;39.00
53776;DHT22;44276;49.534;6.378;2022-10-23T10:18:54;23.70;34.00
53776;DHT22;44276;49.534;6.378;2022-10-23T10:21:33;23.90;31.60
53776;DHT22;44276;49.534;6.378;2022-10-23T10:24:11;24.10;32.70
53776;DHT22;44276;49.534;6.378;2022-10-23T10:26:54;24.20;31.50
53776;DHT22;44276;49.534;6.378;2022-10-23T10:29:44;24.20;30.70
53776;DHT22;44276;49.534;6.378;2022-10-23T10:32:34;24.20;31.70
53776;DHT22;44276;49.534;6.378;2022-10-23T10:35:22;24.80;30.50
53776;DHT22;44276;49.534;6.378;2022-10-23T10:38:15;25.20;29.50
53776;DHT22;44276;49.534;6.378;2022-10-23T10:41:21;24.20;29.60
53776;DHT22;44276;49.534;6.378;2022-10-23T10:44:19;23.30;33.00
53776;DHT22;44276;49.534;6.378;2022-10-23T10:47:05;24.00;32.90
53776;DHT22;44276;49.534;6.378;2022-10-23T10:49:53;23.80;32.20
53776;DHT22;44276;49.534;6.378;2022-10-23T10:52:37;23.20;33.60
53776;DHT22;44276;49.534;6.378;2022-10-23T10:55:18;22.60;33.50
53776;DHT22;44276;49.534;6.378;2022-10-23T10:57:56;22.30;36.10
53776;DHT22;44276;49.534;6.378;2022-10-23T11:00:36;22.20;37.40
53776;DHT22;44276;49.534;6.378;2022-10-23T11:03:21;22.70;35.20
53776;DHT22;44276;49.534;6.378;2022-10-23T11:06:11;23.20;34.40
53776;DHT22;44276;49.534;6.378;2022-10-23T11:08:43;23.60;32.70
53776;DHT22;44276;49.534;6.378;2022-10-23T11:11:35;24.20;31.00
53776;DHT22;44276;49.534;6.378;2022-10-23T11:14:11;24.90;30.90
53776;DHT22;44276;49.534;6.378;2022-10-23T11:16:45;25.60;29.10
53776;DHT22;44276;49.534;6.378;2022-10-23T11:19:21;26.20;29.20
53776;DHT22;44276;49.534;6.378;2022-10-23T11:21:56;26.40;27.50
53776;DHT22;44276;49.534;6.378;2022-10-23T11:24:57;26.30;27.40
53776;DHT22;44276;49.534;6.378;2022-10-23T11:27:48;25.70;28.40
53776;DHT22;44276;49.534;6.378;2022-10-23T11:30:34;25.70;28.40
53776;DHT22;44276;49.534;6.378;2022-10-23T11:33:35;25.90;29.30
53776;DHT22;44276;49.534;6.378;2022-10-23T11:36:38;26.40;28.70
53776;DHT22;44276;49.534;6.378;2022-10-23T11:39:19;26.80;27.30
53776;DHT22;44276;49.534;6.378;2022-10-23T11:41:52;26.70;28.00
53776;DHT22;44276;49.534;6.378;2022-10-23T11:44:37;26.80;27.60
53776;DHT22;44276;49.534;6.378;2022-10-23T11:47:26;27.00;27.30
53776;DHT22;44276;49.534;6.378;2022-10-23T11:50:30;26.10;28.30
53776;DHT22;44276;49.534;6.378;2022-10-23T11:53:03;25.30;29.80
53776;DHT22;44276;49.534;6.378;2022-10-23T11:55:55;25.20;30.40
53776;DHT22;44276;49.534;6.378;2022-10-23T11:58:27;25.80;29.80
53776;DHT22;44276;49.534;6.378;2022-10-23T12:01:18;25.70;29.60
53776;DHT22;44276;49.534;6.378;2022-10-23T12:03:59;26.20;29.60
53776;DHT22;44276;49.534;6.378;2022-10-23T12:06:37;26.90;28.90
53776;DHT22;44276;49.534;6.378;2022-10-23T12:09:22;26.70;27.70
53776;DHT22;44276;49.534;6.378;2022-10-23T12:12:16;26.10;29.50
53776;DHT22;44276;49.534;6.378;2022-10-23T12:15:08;25.40;30.50
53776;DHT22;44276;49.534;6.378;2022-10-23T12:17:48;25.00;32.50
53776;DHT22;44276;49.534;6.378;2022-10-23T12:20:35;25.10;33.00
53776;DHT22;44276;49.534;6.378;2022-10-23T12:23:35;25.40;31.30
53776;DHT22;44276;49.534;6.378;2022-10-23T12:26:26;25.80;30.50
53776;DHT22;44276;49.534;6.378;2022-10-23T12:29:34;26.00;30.00
53776;DHT22;44276;49.534;6.378;2022-10-23T12:32:22;25.80;30.30
53776;DHT22;44276;49.534;6.378;2022-10-23T12:35:31;25.80;30.00
53776;DHT22;44276;49.534;6.378;2022-10-23T12:38:18;25.50;29.90
53776;DHT22;44276;49.534;6.378;2022-10-23T12:40:53;25.50;30.70
53776;DHT22;44276;49.534;6.378;2022-10-23T12:43:26;25.30;30.90
53776;DHT22;44276;49.534;6.378;2022-10-23T12:46:04;25.00;32.30
53776;DHT22;44276;49.534;6.378;2022-10-23T12:48:50;25.10;32.10
53776;DHT22;44276;49.534;6.378;2022-10-23T12:51:21;24.90;32.40
53776;DHT22;44276;49.534;6.378;2022-10-23T12:53:51;24.80;32.40
53776;DHT22;44276;49.534;6.378;2022-10-23T12:56:21;24.80;32.90
53776;DHT22;44276;49.534;6.378;2022-10-23T12:58:53;24.90;32.30
53776;DHT22;44276;49.534;6.378;2022-10-23T13:01:25;24.90;32.50
53776;DHT22;44276;49.534;6.378;2022-10-23T13:03:57;24.70;33.40
53776;DHT22;44276;49.534;6.378;2022-10-23T13:06:28;24.50;33.40
53776;DHT22;44276;49.534;6.378;2022-10-23T13:08:56;24.50;34.30
53776;DHT22;44276;49.534;6.378;2022-10-23T13:11:27;24.70;33.30
53776;DHT22;44276;49.534;6.378;2022-10-23T13:13:56;24.90;33.10
53776;DHT22;44276;49.534;6.378;2022-10-23T13:16:25;25.10;32.80
53776;DHT22;44276;49.534;6.378;2022-10-23T13:18:53;24.80;32.80
53776;DHT22;44276;49.534;6.378;2022-10-23T13:21:23;24.50;32.80
53776;DHT22;44276;49.534;6.378;2022-10-23T13:23:54;24.30;34.20
53776;DHT22;44276;49.534;6.378;2022-10-23T13:26:29;24.50;33.50
53776;DHT22;44276;49.534;6.378;2022-10-23T13:29:00;24.70;33.30
53776;DHT22;44276;49.534;6.378;2022-10-23T13:31:34;24.60;33.30
53776;DHT22;44276;49.534;6.378;2022-10-23T13:34:11;24.40;33.50
53776;DHT22;44276;49.534;6.378;2022-10-23T13:36:53;24.20;34.20
53776;DHT22;44276;49.534;6.378;2022-10-23T13:39:25;24.10;34.70
53776;DHT22;44276;49.534;6.378;2022-10-23T13:42:00;24.10;34.50
53776;DHT22;44276;49.534;6.378;2022-10-23T13:44:37;24.10;34.80
53776;DHT22;44276;49.534;6.378;2022-10-23T13:47:10;24.00;34.90
53776;DHT22;44276;49.534;6.378;2022-10-23T13:49:39;24.00;35.70
53776;DHT22;44276;49.534;6.378;2022-10-23T13:52:09;24.00;35.60
53776;DHT22;44276;49.534;6.378;2022-10-23T13:54:40;24.00;35.90
53776;DHT22;44276;49.534;6.378;2022-10-23T13:57:13;23.70;36.40
53776;DHT22;44276;49.534;6.378;2022-10-23T13:59:42;23.50;37.60
53776;DHT22;44276;49.534;6.378;2022-10-23T14:02:17;23.50;37.60
53776;DHT22;44276;49.534;6.378;2022-10-23T14:04:47;23.50;37.70
53776;DHT22;44276;49.534;6.378;2022-10-23T14:07:15;23.30;37.20
53776;DHT22;44276;49.534;6.378;2022-10-23T14:09:43;23.10;39.40
53776;DHT22;44276;49.534;6.378;2022-10-23T14:12:13;23.10;38.70
53776;DHT22;44276;49.534;6.378;2022-10-23T14:14:42;22.90;39.80
53776;DHT22;44276;49.534;6.378;2022-10-23T14:17:10;22.80;40.30
53776;DHT22;44276;49.534;6.378;2022-10-23T14:19:38;22.60;41.30
53776;DHT22;44276;49.534;6.378;2022-10-23T14:22:06;22.50;41.90
53776;DHT22;44276;49.534;6.378;2022-10-23T14:24:35;22.30;43.00
53776;DHT22;44276;49.534;6.378;2022-10-23T14:27:03;22.20;42.90
53776;DHT22;44276;49.534;6.378;2022-10-23T14:29:32;22.20;43.60
53776;DHT22;44276;49.534;6.378;2022-10-23T14:32:00;22.30;42.70
53776;DHT22;44276;49.534;6.378;2022-10-23T14:34:28;22.40;42.40
53776;DHT22;44276;49.534;6.378;2022-10-23T14:37:00;22.50;42.00
53776;DHT22;44276;49.534;6.378;2022-10-23T14:39:34;22.50;42.10
53776;DHT22;44276;49.534;6.378;2022-10-23T14:42:03;22.50;41.70
53776;DHT22;44276;49.534;6.378;2022-10-23T14:44:33;22.30;43.00
53776;DHT22;44276;49.534;6.378;2022-10-23T14:47:01;22.20;43.60
53776;DHT22;44276;49.534;6.378;2022-10-23T14:49:30;22.10;44.40
53776;DHT22;44276;49.534;6.378;2022-10-23T14:52:01;22.10;44.60
53776;DHT22;44276;49.534;6.378;2022-10-23T14:54:29;22.10;44.80
53776;DHT22;44276;49.534;6.378;2022-10-23T14:57:00;22.00;45.80
53776;DHT22;44276;49.534;6.378;2022-10-23T14:59:28;21.80;45.70
53776;DHT22;44276;49.534;6.378;2022-10-23T15:01:57;21.70;47.00
53776;DHT22;44276;49.534;6.378;2022-10-23T15:04:26;21.60;48.90
53776;DHT22;44276;49.534;6.378;2022-10-23T15:06:54;21.40;50.70
53776;DHT22;44276;49.534;6.378;2022-10-23T15:09:22;21.20;51.60
53776;DHT22;44276;49.534;6.378;2022-10-23T15:11:50;21.00;53.00
53776;DHT22;44276;49.534;6.378;2022-10-23T15:14:19;20.90;54.10
53776;DHT22;44276;49.534;6.378;2022-10-23T15:16:47;20.80;54.20
53776;DHT22;44276;49.534;6.378;2022-10-23T15:19:16;20.90;55.00
53776;DHT22;44276;49.534;6.378;2022-10-23T15:21:45;20.80;55.90
53776;DHT22;44276;49.534;6.378;2022-10-23T15:24:14;20.80;57.20
53776;DHT22;44276;49.534;6.378;2022-10-23T15:26:43;20.60;58.90
53776;DHT22;44276;49.534;6.378;2022-10-23T15:29:12;20.40;60.90
53776;DHT22;44276;49.534;6.378;2022-10-23T15:31:52;20.40;62.30
53776;DHT22;44276;49.534;6.378;2022-10-23T15:34:25;20.30;63.90
53776;DHT22;44276;49.534;6.378;2022-10-23T15:36:55;20.20;69.80
53776;DHT22;44276;49.534;6.378;2022-10-23T15:39:26;20.10;75.50
53776;DHT22;44276;49.534;6.378;2022-10-23T15:42:00;19.90;80.80
53776;DHT22;44276;49.534;6.378;2022-10-23T15:44:30;19.60;94.70
53776;DHT22;44276;49.534;6.378;2022-10-23T15:46:59;19.30;98.40
53776;DHT22;44276;49.534;6.378;2022-10-23T15:49:30;19.20;99.90
53776;DHT22;44276;49.534;6.378;2022-10-23T15:51:58;19.10;99.90
53776;DHT22;44276;49.534;6.378;2022-10-23T15:54:27;19.00;99.90
53776;DHT22;44276;49.534;6.378;2022-10-23T15:56:59;18.90;99.90
53776;DHT22;44276;49.534;6.378;2022-10-23T15:59:28;18.70;99.90
53776;DHT22;44276;49.534;6.378;2022-10-23T16:01:58;18.60;99.90
53776;DHT22;44276;49.534;6.378;2022-10-23T16:04:26;18.60;99.90
53776;DHT22;44276;49.534;6.378;2022-10-23T16:06:56;18.50;99.90
53776;DHT22;44276;49.534;6.378;2022-10-23T16:09:24;18.30;99.90
53776;DHT22;44276;49.534;6.378;2022-10-23T16:11:52;18.10;99.90
53776;DHT22;44276;49.534;6.378;2022-10-23T16:14:20;17.80;99.90